Rankings de siempre
Mejores tiempos personales válidos de atleta a través de todos los eventos y temporadas. Cada atleta aparece una vez por división.
Busca por nombre y abre la página donde está clasificado este récord de división.
177,852 atletas clasificados
| Pos. | Pos. AG | Atleta | Nacionalidad | Categoría de edad | TiempoMejor tiempo | Diferencia |
|---|---|---|---|---|---|---|
| 11451 | #2360 | Tim PotterGBR · M 35-39 · AG #2360 | GBR | M 35-39 | 1:08:32 | +17:54 |
| 11452 | #3120 | Ngoc Dat HaGER · M 25-29 · AG #3120 | GER | M 25-29 | 1:08:32 | +17:54 |
| 11453 | #2359 | Andrew RobichauxUSA · M 35-39 · AG #2359 | USA | M 35-39 | 1:08:32 | +17:54 |
| 11454 | #440 | Birger AnderssonSWE · M 45-49 · AG #440 | SWE | M 45-49 | 1:08:32 | +17:54 |
| 11455 | #1445 | Lucas DutreyFRA · M 16-24 · AG #1445 | FRA | M 16-24 | 1:08:32 | +17:54 |
| 11456 | #1163 | Lee ClarkeGBR · M 40-44 · AG #1163 | GBR | M 40-44 | 1:08:32 | +17:54 |
| 11457 | #3563 | Will TrivettUSA · M 30-34 · AG #3563 | USA | M 30-34 | 1:08:32 | +17:54 |
| 11458 | #2364 | James RamseyGBR · M 35-39 · AG #2364 | GBR | M 35-39 | 1:08:32 | +17:54 |
| 11459 | #3559 | Sean ConertyUSA · M 30-34 · AG #3559 | USA | M 30-34 | 1:08:32 | +17:54 |
| 11460 | #3558 | Santiago MirallesARG · M 30-34 · AG #3558 | ARG | M 30-34 | 1:08:32 | +17:54 |
| 11461 | #438 | Leo GrootersNED · M 45-49 · AG #438 | NED | M 45-49 | 1:08:32 | +17:54 |
| 11462 | #1165 | Stephane RIVIEREFRA · M 40-44 · AG #1165 | FRA | M 40-44 | 1:08:32 | +17:54 |
| 11463 | #2357 | Gonzalo ErizeARG · M 35-39 · AG #2357 | ARG | M 35-39 | 1:08:32 | +17:54 |
| 11464 | #3564 | Edward TaylorGBR · M 30-34 · AG #3564 | GBR | M 30-34 | 1:08:32 | +17:54 |
| 11465 | #2366 | James VernallGBR · M 35-39 · AG #2366 | GBR | M 35-39 | 1:08:32 | +17:54 |
| 11466 | #3123 | Emmanuel MoreniFRA · M 25-29 · AG #3123 | FRA | M 25-29 | 1:08:33 | +17:55 |
| 11467 | #2368 | Geoffrey GeniniFRA · M 35-39 · AG #2368 | FRA | M 35-39 | 1:08:33 | +17:55 |
| 11468 | #2369 | Raymond CinnamondIRL · M 35-39 · AG #2369 | IRL | M 35-39 | 1:08:33 | +17:55 |
| 11469 | #3566 | Kyle JamesGBR · M 30-34 · AG #3566 | GBR | M 30-34 | 1:08:33 | +17:55 |
| 11470 | #2372 | Konstantin BlankGER · M 35-39 · AG #2372 | GER | M 35-39 | 1:08:33 | +17:55 |
| 11471 | #3568 | Mike KealyIVB · M 30-34 · AG #3568 | IVB | M 30-34 | 1:08:33 | +17:55 |
| 11472 | #1166 | Sascha DewaldGER · M 40-44 · AG #1166 | GER | M 40-44 | 1:08:33 | +17:55 |
| 11473 | #3124 | Hector JimenezUSA · M 25-29 · AG #3124 | USA | M 25-29 | 1:08:33 | +17:55 |
| 11474 | #3126 | Leonard-Heinrich VerbreeGER · M 25-29 · AG #3126 | GER | M 25-29 | 1:08:33 | +17:55 |
| 11475 | #1167 | Matt SpencerGBR · M 40-44 · AG #1167 | GBR | M 40-44 | 1:08:33 | +17:55 |
Página 459 de 7,115